KCVG

Cincinnati / Northern Kentucky International Airport

Covington, Kentucky, USA
METAR KCVG 180052Z 33009KT 10SM FEW250 09/01 A3036 RMK AO2 SLP283 T00940006
Observed Flight Rules
Oct-18 @ 00:52 UTC (47 minutes ago) Visual Flight Rules
Wind Visibility Clouds
330° at 9 knots 10 miles
  • Few at 25,000' AGL
Temperatures Readings
Current 9°C / 48°F
Dewpoint 1°C / 34°F
Humidity 58%
Altimeter 30.36" Hg
Pressure 1028.3 hPa
Elevation 269
METAR KCVG 180052Z 33009KT 10SM FEW250 09/01 A3036 RMK AO2 SLP283 T00940006
Observed Flight Rules
Oct-18 @ 00:52 UTC
(47 minutes ago)
VFR
Wind Visibility
330° at 9 knots 10 miles
Clouds
  • Few at 25,000' AGL
Temperature Dewpoint
9°C / 48°F 1°C / 34°F
Humidity Altimeter Pressure
58% 30.36" Hg 1028.3 hPa